Time;durP1;ratioP1;P1;durP2;ratioP2;P2;SDS_P1;SDS_P2;PMS_P1;PMS_P2;Temp;Humidity;BMP_temperature;BMP_pressure;BME280_temperature;BME280_humidity;BME280_pressure;Samples;Min_cycle;Max_cycle;Signal;HPM_P1;HPM_P2
2023/02/14 00:00:20;;;;;;;29.53;14.47;;;0.30;99.90;;;;;;4191174;28;20285;-60
2023/02/14 00:02:22;;;;;;;35.00;16.67;;;0.30;99.90;;;;;;4194168;28;20307;-62
2023/02/14 00:04:23;;;;;;;32.53;15.67;;;0.30;99.90;;;;;;4193734;28;20327;-60
2023/02/14 00:06:24;;;;;;;28.90;14.73;;;0.40;99.90;;;;;;4183697;28;20332;-61
2023/02/14 00:08:25;;;;;;;30.90;15.33;;;0.30;99.90;;;;;;4184762;28;20413;-60
2023/02/14 00:10:26;;;;;;;34.03;14.93;;;0.40;99.90;;;;;;4193593;28;20270;-61
2023/02/14 00:12:27;;;;;;;30.10;14.83;;;0.40;99.90;;;;;;4194482;28;20262;-60
2023/02/14 00:16:48;;;;;;;35.30;16.20;;;0.40;99.90;;;;;;4188311;28;20633;-59
2023/02/14 00:19:05;;;;;;;29.87;14.33;;;0.40;99.90;;;;;;4176907;28;20673;-61
2023/02/14 00:21:06;;;;;;;29.93;14.40;;;0.50;99.90;;;;;;4177800;28;20817;-60
2023/02/14 00:23:07;;;;;;;32.30;14.67;;;0.40;99.90;;;;;;4176974;28;20258;-61
2023/02/14 00:25:08;;;;;;;30.70;14.47;;;0.50;99.90;;;;;;4177530;28;20255;-61
2023/02/14 00:27:09;;;;;;;30.93;14.93;;;0.50;99.90;;;;;;4181679;28;20311;-61
2023/02/14 00:29:14;;;;;;;33.90;16.70;;;0.50;99.90;;;;;;4193969;28;20273;-59
2023/02/14 00:31:15;;;;;;;35.10;15.30;;;0.60;99.90;;;;;;4176850;28;20327;-59
2023/02/14 00:33:16;;;;;;;29.33;14.43;;;0.60;99.90;;;;;;4177769;28;20332;-63
2023/02/14 00:35:17;;;;;;;29.17;13.47;;;0.60;99.90;;;;;;4177519;28;21686;-67
2023/02/14 00:37:19;;;;;;;26.00;12.47;;;0.60;99.90;;;;;;4193654;28;20269;-70
2023/02/14 00:39:20;;;;;;;27.60;12.43;;;0.60;99.90;;;;;;4192550;28;20269;-62
2023/02/14 00:41:21;;;;;;;30.47;12.63;;;0.60;99.90;;;;;;4188386;28;20281;-62
2023/02/14 00:43:22;;;;;;;25.60;12.73;;;0.60;99.90;;;;;;4179192;28;20288;-62
2023/02/14 00:45:24;;;;;;;25.07;13.17;;;0.50;99.90;;;;;;4186037;28;20899;-60
2023/02/14 00:47:25;;;;;;;23.83;12.40;;;0.50;99.90;;;;;;4193795;28;20274;-69
2023/02/14 00:49:26;;;;;;;28.63;13.60;;;0.50;99.90;;;;;;4192919;28;20273;-61
2023/02/14 00:51:27;;;;;;;28.90;13.37;;;0.50;99.90;;;;;;4193720;28;20311;-61
2023/02/14 00:53:28;;;;;;;27.43;13.70;;;0.50;99.90;;;;;;4193029;28;20595;-66
2023/02/14 00:55:29;;;;;;;31.67;14.93;;;0.50;99.90;;;;;;4194341;28;20254;-61
2023/02/14 00:57:30;;;;;;;33.47;15.87;;;0.50;99.90;;;;;;4193043;28;20646;-61
2023/02/14 00:59:31;;;;;;;30.53;14.80;;;0.50;99.90;;;;;;4194201;28;20281;-62
2023/02/14 01:01:33;;;;;;;33.37;14.97;;;0.50;99.90;;;;;;4188369;28;20852;-62
2023/02/14 01:03:34;;;;;;;34.93;15.03;;;0.60;99.90;;;;;;4179260;28;20282;-65
2023/02/14 01:05:36;;;;;;;33.50;15.63;;;0.50;99.90;;;;;;4184478;28;20346;-61
2023/02/14 01:07:37;;;;;;;30.80;15.70;;;0.50;99.90;;;;;;4193493;28;20278;-66
2023/02/14 01:09:38;;;;;;;32.17;15.33;;;0.60;99.90;;;;;;4179499;28;20284;-62
2023/02/14 01:11:39;;;;;;;27.97;14.70;;;0.60;99.90;;;;;;4190304;28;20262;-62
2023/02/14 01:13:41;;;;;;;29.83;14.17;;;0.60;99.90;;;;;;4196189;28;20281;-70
2023/02/14 01:15:45;;;;;;;28.33;14.30;;;0.60;99.90;;;;;;4183938;28;20277;-72
2023/02/14 01:17:47;;;;;;;31.83;15.47;;;0.60;99.90;;;;;;4180734;28;20305;-61
2023/02/14 01:19:53;;;;;;;30.70;14.37;;;0.60;99.90;;;;;;4179617;28;20356;-62
2023/02/14 01:21:54;;;;;;;29.50;14.07;;;0.60;99.90;;;;;;4180024;28;20327;-61
2023/02/14 01:23:59;;;;;;;36.13;15.43;;;0.70;99.90;;;;;;4178854;28;20262;-61
2023/02/14 01:26:07;;;;;;;29.80;14.40;;;0.70;99.90;;;;;;4180089;28;20832;-61
2023/02/14 01:28:08;;;;;;;29.43;14.93;;;0.70;99.90;;;;;;4179093;28;20757;-61
2023/02/14 01:30:10;;;;;;;26.50;14.70;;;0.70;99.90;;;;;;4188246;28;20285;-61
2023/02/14 01:32:11;;;;;;;28.17;13.70;;;0.70;99.90;;;;;;4195627;28;20265;-60
2023/02/14 01:34:12;;;;;;;31.27;14.60;;;0.70;99.90;;;;;;4193961;28;20265;-62
2023/02/14 01:36:26;;;;;;;34.90;15.77;;;0.70;99.90;;;;;;4195691;28;20341;-62
2023/02/14 01:38:27;;;;;;;33.30;15.53;;;0.80;99.90;;;;;;4196588;28;20680;-61
2023/02/14 01:40:28;;;;;;;27.93;13.67;;;0.80;99.90;;;;;;4195590;28;21053;-62
2023/02/14 01:42:31;;;;;;;29.40;13.87;;;0.70;99.90;;;;;;4196550;28;20285;-62
2023/02/14 01:45:12;;;;;;;29.10;13.57;;;0.80;99.90;;;;;;4191721;28;20406;-62
2023/02/14 01:47:15;;;;;;;26.80;12.80;;;0.70;99.90;;;;;;4183958;28;20677;-61
2023/02/14 01:49:18;;;;;;;24.80;12.10;;;0.80;99.90;;;;;;4178940;28;20316;-63
2023/02/14 01:51:19;;;;;;;27.57;13.70;;;0.70;99.90;;;;;;4179914;28;20324;-62
2023/02/14 01:53:26;;;;;;;28.03;14.80;;;0.80;99.90;;;;;;4178312;28;20835;-62
2023/02/14 01:55:31;;;;;;;28.63;13.93;;;0.80;99.90;;;;;;4179916;28;20274;-62
2023/02/14 01:57:57;;;;;;;27.93;14.33;;;0.80;99.90;;;;;;4178625;28;20318;-62
2023/02/14 02:00:55;;;;;;;32.77;15.03;;;0.80;99.90;;;;;;4179795;28;20339;-62
2023/02/14 02:02:22;;;;;;;34.33;16.10;;;0.80;99.90;;;;;;4178574;28;20278;-61
2023/02/14 02:04:33;;;;;;;30.57;14.40;;;0.80;99.90;;;;;;4179961;28;21194;-62
2023/02/14 02:06:43;;;;;;;31.10;15.23;;;0.80;99.90;;;;;;4178653;28;20807;-61
2023/02/14 02:08:55;;;;;;;30.20;14.73;;;0.80;99.90;;;;;;4189154;28;20270;-62
2023/02/14 02:10:56;;;;;;;34.33;14.93;;;0.80;99.90;;;;;;4183545;28;20327;-61
2023/02/14 02:13:03;;;;;;;31.70;15.00;;;0.80;99.90;;;;;;4196159;28;20335;-61
2023/02/14 02:15:06;;;;;;;32.13;14.60;;;0.80;99.90;;;;;;4188923;28;20778;-61
2023/02/14 02:17:32;;;;;;;29.63;13.97;;;0.80;99.90;;;;;;4179062;28;20327;-61
2023/02/14 02:20:01;;;;;;;25.07;12.30;;;0.80;99.90;;;;;;4177994;28;20324;-60
2023/02/14 02:22:40;;;;;;;24.97;12.33;;;0.70;99.90;;;;;;4179528;28;20258;-60
2023/02/14 02:24:50;;;;;;;26.83;13.43;;;0.70;99.90;;;;;;4178582;28;20304;-61
2023/02/14 02:27:45;;;;;;;25.87;13.53;;;0.70;99.90;;;;;;4178992;28;20266;-61
2023/02/14 02:30:16;;;;;;;26.83;12.60;;;0.70;99.90;;;;;;4132053;28;20337;-69
2023/02/14 02:32:48;;;;;;;25.53;11.70;;;0.80;99.90;;;;;;4176128;28;20819;-62
2023/02/14 02:35:08;;;;;;;23.60;12.40;;;0.80;99.90;;;;;;4179253;28;20336;-60
2023/02/14 02:37:33;;;;;;;24.97;12.13;;;0.70;99.90;;;;;;4178147;28;20348;-61
2023/02/14 02:40:05;;;;;;;27.47;13.23;;;0.70;99.90;;;;;;4179043;28;20661;-61
2023/02/14 02:42:28;;;;;;;23.90;12.10;;;0.70;99.90;;;;;;4178555;28;20250;-60
2023/02/14 02:44:47;;;;;;;25.70;13.47;;;0.70;99.90;;;;;;4179341;28;20730;-61
2023/02/14 02:47:08;;;;;;;25.73;14.30;;;0.70;99.90;;;;;;4193733;28;20265;-63
2023/02/14 02:54:18;;;;;;;25.50;12.37;;;0.80;99.90;;;;;;4194546;28;20311;-61
2023/02/14 02:56:48;;;;;;;30.57;14.03;;;0.80;99.90;;;;;;4194995;28;20265;-69
2023/02/14 02:59:05;;;;;;;23.27;12.77;;;0.90;99.90;;;;;;4194342;28;20282;-61
2023/02/14 03:01:11;;;;;;;28.00;13.07;;;0.90;99.90;;;;;;4195069;28;20281;-64
2023/02/14 03:05:34;;;;;;;31.77;13.77;;;0.90;99.90;;;;;;4195321;28;20303;-60
2023/02/14 03:07:38;;;;;;;27.03;14.20;;;1.00;99.90;;;;;;4193849;28;20085;-68
2023/02/14 03:09:40;;;;;;;30.10;13.57;;;0.90;99.90;;;;;;4195071;28;20334;-61
2023/02/14 03:12:04;;;;;;;29.70;13.40;;;1.00;99.90;;;;;;4193604;28;20289;-61
2023/02/14 03:14:34;;;;;;;27.03;13.30;;;1.00;99.90;;;;;;4194747;28;20322;-61
2023/02/14 03:17:13;;;;;;;28.90;13.97;;;1.00;99.90;;;;;;4181100;28;20398;-61
2023/02/14 03:22:15;;;;;;;26.50;12.80;;;1.00;99.90;;;;;;4178789;28;20339;-64
2023/02/14 03:24:41;;;;;;;22.70;12.47;;;1.10;99.90;;;;;;4183812;28;20270;-59
2023/02/14 03:26:56;;;;;;;25.53;13.53;;;1.10;99.90;;;;;;4194931;28;20370;-61
2023/02/14 03:29:44;;;;;;;22.70;12.13;;;1.10;99.90;;;;;;4193677;28;20273;-62
2023/02/14 03:32:09;;;;;;;24.97;12.93;;;1.10;99.90;;;;;;4176067;28;20339;-70
2023/02/14 03:34:11;;;;;;;30.07;13.50;;;1.10;99.90;;;;;;4177569;28;20316;-71
2023/02/14 03:36:20;;;;;;;25.30;13.13;;;1.20;99.90;;;;;;4177694;28;20297;-67
2023/02/14 03:38:31;;;;;;;33.17;14.37;;;1.10;99.90;;;;;;4177537;28;20290;-70
2023/02/14 03:40:56;;;;;;;25.90;12.67;;;1.20;99.90;;;;;;4177535;28;21350;-62
2023/02/14 03:43:11;;;;;;;29.47;13.57;;;1.20;99.90;;;;;;4177886;28;20316;-61
2023/02/14 03:45:18;;;;;;;27.27;14.23;;;1.20;99.90;;;;;;4177059;28;20312;-67
2023/02/14 03:47:27;;;;;;;27.33;13.70;;;1.20;99.90;;;;;;4177897;28;20278;-61
2023/02/14 03:49:34;;;;;;;26.07;13.77;;;1.20;99.90;;;;;;4178227;28;20324;-61
2023/02/14 03:51:37;;;;;;;27.23;13.53;;;1.20;99.90;;;;;;4185275;28;20385;-62
2023/02/14 03:53:43;;;;;;;29.20;14.77;;;1.30;99.90;;;;;;4183936;28;20286;-60
2023/02/14 03:56:12;;;;;;;29.17;14.07;;;1.30;99.90;;;;;;4175969;28;20316;-61
2023/02/14 03:58:28;;;;;;;30.43;12.97;;;1.30;99.90;;;;;;4167651;28;20306;-62
2023/02/14 04:00:35;;;;;;;31.30;13.00;;;1.30;99.90;;;;;;4179187;28;20339;-63
2023/02/14 04:02:43;;;;;;;27.67;13.37;;;1.30;99.90;;;;;;4182129;28;20358;-64
2023/02/14 04:04:46;;;;;;;26.37;13.20;;;1.30;99.90;;;;;;4185294;28;20270;-61
2023/02/14 04:06:49;;;;;;;28.00;12.17;;;1.30;99.90;;;;;;4189805;28;20293;-61
2023/02/14 04:08:50;;;;;;;27.97;14.50;;;1.40;99.90;;;;;;4194137;28;20269;-67
2023/02/14 04:10:53;;;;;;;26.77;14.03;;;1.40;99.90;;;;;;4193997;28;20262;-62
2023/02/14 04:12:54;;;;;;;26.87;13.33;;;1.50;99.90;;;;;;4193672;28;20721;-67
2023/02/14 04:14:55;;;;;;;27.90;14.23;;;1.40;99.90;;;;;;4194083;28;20274;-63
2023/02/14 04:19:22;;;;;;;28.43;14.70;;;1.50;99.90;;;;;;4192341;28;20346;-61
2023/02/14 04:21:23;;;;;;;29.63;15.13;;;1.50;99.90;;;;;;4193325;28;20306;-60
2023/02/14 04:23:24;;;;;;;23.23;13.37;;;1.50;99.90;;;;;;4194248;28;20257;-60
2023/02/14 04:25:26;;;;;;;27.10;14.30;;;1.50;99.90;;;;;;4183093;28;20623;-71
2023/02/14 04:27:27;;;;;;;28.70;15.20;;;1.50;99.90;;;;;;4177846;28;20278;-62
2023/02/14 04:29:28;;;;;;;28.27;13.60;;;1.50;99.90;;;;;;4177834;28;20274;-71
2023/02/14 04:31:30;;;;;;;30.87;14.87;;;1.50;99.90;;;;;;4194419;28;20282;-71
2023/02/14 04:33:32;;;;;;;29.93;14.70;;;1.50;99.90;;;;;;4182103;28;20277;-62
2023/02/14 04:35:33;;;;;;;30.67;15.70;;;1.50;99.90;;;;;;4187660;28;20615;-69
2023/02/14 04:37:35;;;;;;;30.87;15.37;;;1.50;99.90;;;;;;4193198;28;20265;-61
2023/02/14 04:39:36;;;;;;;29.07;15.17;;;1.50;99.90;;;;;;4194178;28;20354;-69
2023/02/14 04:41:37;;;;;;;32.53;16.27;;;1.60;99.90;;;;;;4193845;28;20598;-68
2023/02/14 04:43:38;;;;;;;30.80;14.90;;;1.60;99.90;;;;;;4197324;28;20257;-66
2023/02/14 04:45:39;;;;;;;30.63;16.13;;;1.60;99.90;;;;;;4194669;28;20266;-61
2023/02/14 04:47:40;;;;;;;31.17;15.23;;;1.60;99.90;;;;;;4196981;28;20307;-61
2023/02/14 04:49:42;;;;;;;27.23;15.10;;;1.60;99.90;;;;;;4196787;28;20667;-61
2023/02/14 04:51:43;;;;;;;33.07;14.80;;;1.70;99.90;;;;;;4196325;28;20334;-62
2023/02/14 04:53:44;;;;;;;27.40;14.07;;;1.70;99.90;;;;;;4194776;28;20351;-61
2023/02/14 04:55:48;;;;;;;32.93;15.87;;;1.70;99.90;;;;;;4179556;28;20262;-60
2023/02/14 04:57:50;;;;;;;25.43;13.83;;;1.70;99.90;;;;;;4180598;28;20262;-60
2023/02/14 04:59:51;;;;;;;27.37;13.70;;;1.70;99.90;;;;;;4179001;28;20297;-60
2023/02/14 05:01:52;;;;;;;28.93;13.63;;;1.70;99.90;;;;;;4185451;28;20266;-68
2023/02/14 05:03:53;;;;;;;31.17;13.80;;;1.70;99.90;;;;;;4186093;28;20331;-60
2023/02/14 05:05:54;;;;;;;25.60;13.37;;;1.70;99.90;;;;;;4187121;28;20660;-61
2023/02/14 05:07:55;;;;;;;31.03;15.03;;;1.70;99.90;;;;;;4195893;28;20319;-61
2023/02/14 05:09:57;;;;;;;29.43;14.33;;;1.70;99.90;;;;;;4197084;28;20323;-61
2023/02/14 05:11:58;;;;;;;32.63;14.90;;;1.80;99.90;;;;;;4195747;28;20323;-59
2023/02/14 05:13:59;;;;;;;33.30;16.30;;;1.80;99.90;;;;;;4186668;28;20320;-61
2023/02/14 05:16:01;;;;;;;32.50;16.33;;;1.80;99.90;;;;;;4178979;28;20824;-62
2023/02/14 05:18:04;;;;;;;30.80;15.57;;;1.80;99.90;;;;;;4185097;28;20303;-60
2023/02/14 05:20:06;;;;;;;37.77;17.73;;;1.80;99.90;;;;;;4192841;28;20285;-61
2023/02/14 05:22:07;;;;;;;35.80;17.27;;;1.80;99.90;;;;;;4179368;28;20266;-63
2023/02/14 05:24:08;;;;;;;34.90;16.87;;;1.80;99.90;;;;;;4179752;28;20612;-60
2023/02/14 05:26:09;;;;;;;29.83;15.23;;;1.90;99.90;;;;;;4178795;28;20263;-60
2023/02/14 05:28:10;;;;;;;31.43;15.33;;;1.90;99.90;;;;;;4180073;28;20755;-62
2023/02/14 05:30:12;;;;;;;29.67;14.87;;;1.90;99.90;;;;;;4179693;28;20665;-62
2023/02/14 05:32:13;;;;;;;30.67;15.70;;;1.90;99.90;;;;;;4180069;28;20278;-62
2023/02/14 05:34:15;;;;;;;27.43;14.37;;;1.90;99.90;;;;;;4178716;28;20274;-63
2023/02/14 05:36:16;;;;;;;24.80;13.23;;;1.90;99.90;;;;;;4182137;28;20378;-61
2023/02/14 05:38:17;;;;;;;24.87;13.37;;;2.00;99.90;;;;;;4178846;28;20262;-62
2023/02/14 05:40:19;;;;;;;24.17;12.57;;;2.00;99.90;;;;;;4182595;28;20754;-61
2023/02/14 05:42:20;;;;;;;24.43;12.93;;;2.00;99.90;;;;;;4178762;28;20332;-61
2023/02/14 05:44:22;;;;;;;23.70;12.80;;;2.00;99.90;;;;;;4180934;28;20352;-65
2023/02/14 05:46:23;;;;;;;22.20;12.03;;;2.10;99.90;;;;;;4185341;28;20391;-61
2023/02/14 05:48:24;;;;;;;22.80;12.80;;;2.10;99.90;;;;;;4195960;28;20667;-59
2023/02/14 05:50:26;;;;;;;25.70;12.00;;;2.10;99.90;;;;;;4186915;28;20776;-61
2023/02/14 05:52:27;;;;;;;22.03;11.17;;;2.10;99.90;;;;;;4195437;28;20270;-63
2023/02/14 05:54:28;;;;;;;25.60;11.53;;;2.20;99.90;;;;;;4195840;28;20330;-61
2023/02/14 05:56:29;;;;;;;24.10;11.40;;;2.20;99.90;;;;;;4187654;28;20258;-62
2023/02/14 05:58:31;;;;;;;21.03;11.10;;;2.20;99.90;;;;;;4179582;28;20294;-62
2023/02/14 06:00:33;;;;;;;24.80;12.97;;;2.20;99.90;;;;;;4182045;28;20388;-60
2023/02/14 06:02:34;;;;;;;27.13;12.93;;;2.30;99.90;;;;;;4182585;28;20327;-63
2023/02/14 06:04:35;;;;;;;22.90;12.60;;;2.30;99.90;;;;;;4183913;28;20270;-59
2023/02/14 06:06:36;;;;;;;25.13;11.53;;;2.30;99.90;;;;;;4181081;28;20273;-59
2023/02/14 06:08:37;;;;;;;26.90;12.53;;;2.30;99.90;;;;;;4176967;28;20262;-62
2023/02/14 06:10:39;;;;;;;23.77;12.27;;;2.30;99.90;;;;;;4179354;28;20738;-61
2023/02/14 06:12:40;;;;;;;25.10;12.37;;;2.30;99.90;;;;;;4179101;28;20293;-62
2023/02/14 06:14:41;;;;;;;27.00;13.07;;;2.30;99.90;;;;;;4178879;28;20270;-61
2023/02/14 06:16:42;;;;;;;21.70;11.53;;;2.30;99.90;;;;;;4191744;28;20365;-60
2023/02/14 06:18:44;;;;;;;26.47;12.20;;;2.30;99.90;;;;;;4195244;28;20277;-61
2023/02/14 06:20:45;;;;;;;20.67;10.27;;;2.30;99.90;;;;;;4192568;28;20342;-62
2023/02/14 06:22:46;;;;;;;17.33;10.30;;;2.40;99.90;;;;;;4185990;28;20379;-65
2023/02/14 06:24:47;;;;;;;15.57;8.47;;;2.40;99.90;;;;;;4192380;28;20342;-62
2023/02/14 06:26:48;;;;;;;23.50;12.23;;;2.40;99.90;;;;;;4194202;28;20801;-59
2023/02/14 06:28:54;;;;;;;26.53;12.70;;;2.40;99.90;;;;;;4181727;28;20641;-61
2023/02/14 06:30:56;;;;;;;25.57;13.23;;;2.40;99.90;;;;;;4186938;28;20330;-61
2023/02/14 06:32:57;;;;;;;25.37;13.10;;;2.40;99.90;;;;;;4182404;28;20717;-62
2023/02/14 06:34:58;;;;;;;25.37;12.83;;;2.50;99.90;;;;;;4179764;28;20323;-61
2023/02/14 06:36:59;;;;;;;17.40;10.10;;;2.40;99.90;;;;;;4195163;28;20599;-61
2023/02/14 06:39:01;;;;;;;18.30;9.87;;;2.50;99.90;;;;;;4188072;28;20305;-61
2023/02/14 06:41:08;;;;;;;19.60;9.20;;;2.50;99.90;;;;;;4191244;28;20285;-61
2023/02/14 06:43:09;;;;;;;19.97;10.03;;;2.40;99.90;;;;;;4185567;28;20667;-61
2023/02/14 06:45:10;;;;;;;21.40;10.57;;;2.50;99.90;;;;;;4178693;28;20274;-66
2023/02/14 06:47:11;;;;;;;19.70;10.13;;;2.50;99.90;;;;;;4177416;28;20663;-62
2023/02/14 06:49:13;;;;;;;17.87;9.00;;;2.50;99.90;;;;;;4184986;28;20327;-62
2023/02/14 06:51:14;;;;;;;21.47;10.17;;;2.50;99.90;;;;;;4177676;28;20815;-60
2023/02/14 06:53:15;;;;;;;22.80;9.43;;;2.50;99.90;;;;;;4178284;28;20628;-61
2023/02/14 06:55:17;;;;;;;16.77;8.67;;;2.50;99.90;;;;;;4178035;28;20266;-61
2023/02/14 06:57:18;;;;;;;15.53;8.37;;;2.50;99.90;;;;;;4178099;28;20320;-61
2023/02/14 06:59:19;;;;;;;16.50;8.60;;;2.50;99.90;;;;;;4177928;28;20319;-61
2023/02/14 07:01:20;;;;;;;20.97;10.93;;;2.50;99.90;;;;;;4177741;28;20327;-60
2023/02/14 07:03:21;;;;;;;17.50;9.27;;;2.50;99.90;;;;;;4178394;28;20324;-61
2023/02/14 07:05:22;;;;;;;16.90;8.17;;;2.50;99.90;;;;;;4176532;28;20317;-59
2023/02/14 07:07:23;;;;;;;16.47;9.17;;;2.50;99.90;;;;;;4178401;28;20270;-61
2023/02/14 07:09:25;;;;;;;16.53;9.03;;;2.50;99.90;;;;;;4177246;28;20274;-62
2023/02/14 07:11:27;;;;;;;19.50;10.87;;;2.60;99.90;;;;;;4177985;28;20286;-61
2023/02/14 07:13:28;;;;;;;18.57;10.37;;;2.50;99.90;;;;;;4176797;28;20651;-61
2023/02/14 07:15:29;;;;;;;19.07;9.93;;;2.60;99.90;;;;;;4176522;28;20812;-62
2023/02/14 07:17:30;;;;;;;16.70;8.83;;;2.60;99.90;;;;;;4177119;28;20282;-61
2023/02/14 07:19:32;;;;;;;17.67;9.73;;;2.60;99.90;;;;;;4178085;28;20692;-61
2023/02/14 07:21:33;;;;;;;17.37;10.03;;;2.60;99.90;;;;;;4176923;28;20337;-61
2023/02/14 07:23:34;;;;;;;18.70;9.87;;;2.60;99.90;;;;;;4177901;28;20324;-61
2023/02/14 07:25:36;;;;;;;14.47;8.23;;;2.60;99.90;;;;;;4177332;28;20327;-61
2023/02/14 07:27:37;;;;;;;17.17;9.17;;;2.60;99.90;;;;;;4177421;28;20323;-59
2023/02/14 07:29:39;;;;;;;18.30;9.37;;;2.70;99.90;;;;;;4177642;28;20328;-61
2023/02/14 07:31:40;;;;;;;19.77;10.47;;;2.70;99.90;;;;;;4177086;28;20833;-63
2023/02/14 07:33:41;;;;;;;18.57;9.33;;;2.70;99.90;;;;;;4177931;28;20339;-62
2023/02/14 07:35:42;;;;;;;16.20;10.17;;;2.70;99.90;;;;;;4176855;28;20824;-60
2023/02/14 07:37:43;;;;;;;17.00;9.30;;;2.70;99.90;;;;;;4177968;28;20274;-59
2023/02/14 07:39:45;;;;;;;18.73;9.47;;;2.70;99.90;;;;;;4176782;28;20355;-60
2023/02/14 07:41:46;;;;;;;19.83;10.60;;;2.70;99.90;;;;;;4176929;28;20327;-61
2023/02/14 07:43:47;;;;;;;18.37;10.50;;;2.70;99.90;;;;;;4176752;28;20793;-60
2023/02/14 07:45:48;;;;;;;19.83;11.07;;;2.70;99.90;;;;;;4177858;28;20324;-61
2023/02/14 07:47:53;;;;;;;16.97;9.03;;;2.70;99.90;;;;;;4176578;28;20750;-58
2023/02/14 07:49:55;;;;;;;17.13;8.87;;;2.80;99.90;;;;;;4178081;28;20289;-62
2023/02/14 07:51:56;;;;;;;16.70;8.53;;;2.80;99.90;;;;;;4176779;28;20304;-60
2023/02/14 07:53:57;;;;;;;18.73;9.67;;;2.80;99.90;;;;;;4177644;28;20274;-62
2023/02/14 07:55:58;;;;;;;17.47;8.60;;;2.90;99.90;;;;;;4177000;28;20288;-62
2023/02/14 07:58:00;;;;;;;16.23;8.67;;;2.80;99.90;;;;;;4177353;28;20327;-62
2023/02/14 08:00:01;;;;;;;21.43;9.77;;;2.90;99.90;;;;;;4177023;28;20693;-61
2023/02/14 08:02:02;;;;;;;15.67;8.80;;;2.90;99.90;;;;;;4177380;28;20254;-62
2023/02/14 08:04:04;;;;;;;18.10;10.07;;;2.90;99.90;;;;;;4177440;28;20258;-67
2023/02/14 08:06:05;;;;;;;16.20;8.70;;;3.00;99.90;;;;;;4176284;28;20262;-62
2023/02/14 08:08:06;;;;;;;17.73;8.83;;;3.00;99.90;;;;;;4177544;28;20320;-61
2023/02/14 08:10:08;;;;;;;16.73;9.63;;;3.00;99.90;;;;;;4176227;28;20304;-59
2023/02/14 08:14:29;;;;;;;14.13;9.10;;;3.00;99.90;;;;;;4174742;28;20431;-61
2023/02/14 08:16:33;;;;;;;15.27;8.40;;;3.00;99.90;;;;;;4179704;28;20610;-60
2023/02/14 08:18:37;;;;;;;15.90;8.93;;;3.00;99.90;;;;;;4180206;28;20262;-59
2023/02/14 08:20:38;;;;;;;16.67;9.07;;;3.00;99.90;;;;;;4180947;28;20290;-61
2023/02/14 08:22:39;;;;;;;18.27;9.87;;;3.10;99.90;;;;;;4179999;28;20274;-61
2023/02/14 08:24:41;;;;;;;16.63;8.67;;;3.10;99.90;;;;;;4181024;28;20278;-60
2023/02/14 08:26:42;;;;;;;19.20;9.30;;;3.10;99.90;;;;;;4179830;28;20633;-62
2023/02/14 08:28:44;;;;;;;16.10;8.40;;;3.10;99.90;;;;;;4180077;28;20312;-60
2023/02/14 08:30:45;;;;;;;23.37;9.93;;;3.20;99.90;;;;;;4179619;28;20266;-60
2023/02/14 08:32:46;;;;;;;20.47;10.27;;;3.20;99.90;;;;;;4180760;28;20665;-64
2023/02/14 08:34:47;;;;;;;17.13;9.63;;;3.20;99.90;;;;;;4180104;28;20266;-60
2023/02/14 08:36:48;;;;;;;21.43;9.27;;;3.20;99.90;;;;;;4180025;28;20266;-60
2023/02/14 08:38:49;;;;;;;17.00;8.57;;;3.20;99.90;;;;;;4179687;28;20266;-61
2023/02/14 08:40:51;;;;;;;17.77;8.47;;;3.20;99.90;;;;;;4193776;28;20289;-60
2023/02/14 08:42:52;;;;;;;19.13;10.50;;;3.20;99.90;;;;;;4194824;28;20261;-61
2023/02/14 08:44:53;;;;;;;12.50;7.77;;;3.20;99.90;;;;;;4192134;28;20269;-61
2023/02/14 08:46:54;;;;;;;19.73;10.63;;;3.20;99.90;;;;;;4197120;28;20427;-61
2023/02/14 08:48:55;;;;;;;18.13;8.57;;;3.30;99.90;;;;;;4194506;28;20362;-59
2023/02/14 08:50:56;;;;;;;23.60;11.40;;;3.20;99.90;;;;;;4196819;28;20285;-61
2023/02/14 08:52:58;;;;;;;21.37;10.20;;;3.30;99.90;;;;;;4182064;28;20282;-60
2023/02/14 08:54:59;;;;;;;21.10;10.03;;;3.30;99.90;;;;;;4180421;28;20311;-60
2023/02/14 08:57:02;;;;;;;22.67;10.97;;;3.30;99.90;;;;;;4183022;28;20776;-60
2023/02/14 08:59:03;;;;;;;19.13;9.50;;;3.40;99.90;;;;;;4186064;28;20253;-64
2023/02/14 09:01:16;;;;;;;22.77;11.37;;;3.40;99.90;;;;;;4195438;28;20339;-62
2023/02/14 09:03:17;;;;;;;23.13;13.43;;;3.40;99.90;;;;;;4188754;28;20262;-60
2023/02/14 09:05:22;;;;;;;20.20;10.67;;;3.40;99.90;;;;;;4179035;28;20315;-64
2023/02/14 09:07:23;;;;;;;20.17;9.97;;;3.40;99.90;;;;;;4180078;28;20335;-64
2023/02/14 09:09:24;;;;;;;18.13;8.87;;;3.50;99.90;;;;;;4179550;28;20328;-63
2023/02/14 09:11:25;;;;;;;22.33;9.40;;;3.50;99.90;;;;;;4177970;28;20292;-63
2023/02/14 09:13:26;;;;;;;22.43;10.97;;;3.50;99.90;;;;;;4179158;28;20266;-64
2023/02/14 09:15:28;;;;;;;17.33;9.30;;;3.60;99.90;;;;;;4178753;28;20316;-63
2023/02/14 09:17:29;;;;;;;23.00;9.57;;;3.60;99.90;;;;;;4182284;28;20278;-64
2023/02/14 09:19:35;;;;;;;15.83;9.07;;;3.60;99.90;;;;;;4178708;28;20289;-63
2023/02/14 09:21:36;;;;;;;19.50;9.93;;;3.60;99.90;;;;;;4179853;28;20732;-61
2023/02/14 09:23:38;;;;;;;19.20;8.97;;;3.60;99.90;;;;;;4178668;28;20262;-62
2023/02/14 09:25:39;;;;;;;18.77;9.47;;;3.60;99.90;;;;;;4179699;28;20308;-61
2023/02/14 09:27:41;;;;;;;22.07;9.33;;;3.60;99.90;;;;;;4178468;28;20261;-62
2023/02/14 09:29:42;;;;;;;19.73;11.07;;;3.70;99.90;;;;;;4179724;28;20327;-62
2023/02/14 09:31:43;;;;;;;20.27;10.27;;;3.70;99.90;;;;;;4178633;28;20324;-62
2023/02/14 09:33:46;;;;;;;28.53;12.17;;;3.80;99.90;;;;;;4179910;28;20270;-64
2023/02/14 09:38:10;;;;;;;28.97;13.10;;;3.90;99.90;;;;;;4195305;28;20327;-63
2023/02/14 09:40:18;;;;;;;33.33;15.17;;;3.80;99.90;;;;;;4194890;28;20842;-61
2023/02/14 09:42:33;;;;;;;24.83;12.63;;;3.90;99.90;;;;;;4195770;28;20266;-62
2023/02/14 09:44:40;;;;;;;30.17;14.80;;;3.90;99.90;;;;;;4194505;28;20705;-61
2023/02/14 09:46:50;;;;;;;35.17;15.43;;;3.90;99.90;;;;;;4196249;28;20261;-61
2023/02/14 09:48:53;;;;;;;32.57;15.27;;;3.90;99.90;;;;;;4195129;28;20265;-61
2023/02/14 09:51:01;;;;;;;18.83;10.10;;;3.90;99.90;;;;;;4196139;28;20672;-69
2023/02/14 09:53:28;;;;;;;40.83;18.37;;;3.90;99.90;;;;;;4193193;28;20297;-65
2023/02/14 09:55:42;;;;;;;29.23;13.10;;;4.00;99.90;;;;;;4190361;28;20656;-70
2023/02/14 09:58:28;;;;;;;22.70;10.33;;;4.00;99.90;;;;;;4194176;28;20249;-62
2023/02/14 10:00:37;;;;;;;35.37;16.37;;;4.10;99.90;;;;;;4178945;28;20285;-62
2023/02/14 10:02:41;;;;;;;27.33;12.40;;;4.10;99.90;;;;;;4193568;28;20331;-60
2023/02/14 10:05:09;;;;;;;21.83;10.47;;;4.20;99.90;;;;;;4195703;28;20266;-61
2023/02/14 10:07:22;;;;;;;28.23;15.23;;;4.20;99.90;;;;;;4195032;28;20257;-62
2023/02/14 10:09:29;;;;;;;21.73;11.40;;;4.20;99.90;;;;;;4194564;28;20262;-62
2023/02/14 10:11:30;;;;;;;19.93;8.73;;;4.10;99.90;;;;;;4194431;28;20319;-66
2023/02/14 10:13:36;;;;;;;19.37;10.60;;;4.20;99.90;;;;;;4195845;28;20315;-70
2023/02/14 10:15:41;;;;;;;18.80;10.37;;;4.20;99.90;;;;;;4194361;28;20420;-62
2023/02/14 10:17:49;;;;;;;18.40;10.60;;;4.30;99.90;;;;;;4185285;28;20834;-61
2023/02/14 10:20:00;;;;;;;24.73;11.13;;;4.40;99.90;;;;;;4178061;28;20859;-69
2023/02/14 10:22:05;;;;;;;17.88;10.00;;;4.40;99.90;;;;;;4178947;28;20269;-69
2023/02/14 10:24:38;;;;;;;22.50;10.60;;;4.30;99.90;;;;;;4178904;28;20033;-61
2023/02/14 10:26:40;;;;;;;20.33;10.03;;;4.30;99.90;;;;;;4177755;28;20403;-66
2023/02/14 10:28:43;;;;;;;17.67;8.67;;;4.30;99.90;;;;;;4177949;28;20649;-67
2023/02/14 10:31:00;;;;;;;21.67;10.30;;;4.20;99.90;;;;;;4178800;28;20266;-60
2023/02/14 10:33:15;;;;;;;20.37;10.97;;;4.30;99.90;;;;;;4178144;28;20282;-58
2023/02/14 10:35:34;;;;;;;18.63;9.50;;;4.30;99.90;;;;;;4178764;28;20275;-61
2023/02/14 10:37:44;;;;;;;19.73;11.00;;;4.30;99.90;;;;;;4177739;28;20746;-61
2023/02/14 10:40:00;;;;;;;20.17;9.82;;;4.30;99.90;;;;;;4179987;28;20756;-58
2023/02/14 10:42:16;;;;;;;16.57;9.27;;;4.30;99.90;;;;;;4193626;28;20488;-61
2023/02/14 10:44:33;;;;;;;20.67;8.50;;;4.40;99.90;;;;;;4194917;28;20725;-61
2023/02/14 10:46:57;;;;;;;19.90;9.73;;;4.40;99.90;;;;;;4194497;28;20269;-62
2023/02/14 10:49:27;;;;;;;17.13;10.13;;;4.40;99.90;;;;;;4194468;28;20430;-61
2023/02/14 10:51:47;;;;;;;14.07;8.30;;;4.40;99.90;;;;;;4195063;28;20802;-60
2023/02/14 10:54:03;;;;;;;24.27;8.80;;;4.30;99.90;;;;;;4189872;28;20310;-56
2023/02/14 10:56:18;;;;;;;16.43;9.47;;;4.30;99.90;;;;;;4194905;28;20338;-61
2023/02/14 10:58:23;;;;;;;25.83;11.80;;;4.30;99.90;;;;;;4193778;28;20265;-58
2023/02/14 11:00:32;;;;;;;19.53;9.23;;;4.40;99.90;;;;;;4186113;28;20789;-60
2023/02/14 11:02:43;;;;;;;17.80;9.07;;;4.40;99.90;;;;;;4177095;28;20315;-61
2023/02/14 11:04:46;;;;;;;16.03;9.00;;;4.50;99.90;;;;;;4178061;28;20297;-60
2023/02/14 11:06:49;;;;;;;16.40;8.17;;;4.50;99.90;;;;;;4177274;28;20262;-62